createdAt,value
2023-03-31T00:02:13.550Z,52.60
2023-03-31T00:04:46.638Z,52.60
2023-03-31T00:07:16.751Z,52.60
2023-03-31T00:09:46.793Z,52.60
2023-03-31T00:12:17.291Z,52.60
2023-03-31T00:14:46.504Z,52.70
2023-03-31T00:17:17.124Z,52.70
2023-03-31T00:19:50.034Z,52.70
2023-03-31T00:22:22.260Z,52.70
2023-03-31T00:24:51.784Z,52.70
2023-03-31T00:27:20.914Z,52.70
2023-03-31T00:29:50.818Z,52.70
2023-03-31T00:32:21.486Z,52.70
2023-03-31T00:34:50.699Z,52.70
2023-03-31T00:37:20.833Z,52.70
2023-03-31T00:39:51.584Z,52.80
2023-03-31T00:42:21.119Z,52.70
2023-03-31T00:45:25.572Z,52.80
2023-03-31T00:48:03.429Z,52.80
2023-03-31T00:50:36.687Z,52.70
2023-03-31T00:53:12.079Z,52.80
2023-03-31T00:55:45.252Z,52.80
2023-03-31T00:58:20.296Z,52.80
2023-03-31T01:00:51.526Z,52.80
2023-03-31T01:03:22.888Z,52.80
2023-03-31T01:05:55.032Z,52.80
2023-03-31T01:08:27.401Z,52.80
2023-03-31T01:10:59.478Z,52.80
2023-03-31T01:13:30.154Z,52.80
2023-03-31T01:15:59.627Z,52.80
2023-03-31T01:18:35.330Z,52.80
2023-03-31T01:21:43.344Z,52.80
2023-03-31T01:24:40.165Z,52.80
2023-03-31T01:27:49.144Z,52.80
2023-03-31T01:30:55.760Z,52.80
2023-03-31T01:34:15.413Z,52.90
2023-03-31T01:37:15.700Z,52.90
2023-03-31T01:40:23.744Z,52.90
2023-03-31T01:43:00.728Z,52.90
2023-03-31T01:45:39.394Z,52.90
2023-03-31T01:48:14.969Z,52.90
2023-03-31T01:50:48.413Z,52.90
2023-03-31T01:53:27.657Z,52.90
2023-03-31T01:56:04.411Z,52.90
2023-03-31T01:58:39.302Z,52.90
2023-03-31T02:01:19.940Z,52.90
2023-03-31T02:03:55.128Z,52.90
2023-03-31T02:06:29.088Z,52.90
2023-03-31T02:09:08.091Z,53.00
2023-03-31T02:11:39.988Z,53.00
2023-03-31T02:14:13.724Z,53.00
2023-03-31T02:16:47.932Z,53.00
2023-03-31T02:19:20.016Z,53.00
2023-03-31T02:21:51.161Z,53.00
2023-03-31T02:24:24.485Z,53.00
2023-03-31T02:26:58.056Z,53.00
2023-03-31T02:29:28.820Z,53.00
2023-03-31T02:32:05.216Z,53.00
2023-03-31T02:34:34.469Z,53.00
2023-03-31T02:37:04.017Z,53.00
2023-03-31T02:39:36.516Z,53.60
2023-03-31T02:42:08.213Z,52.90
2023-03-31T02:44:40.498Z,52.90
2023-03-31T02:47:13.798Z,53.00
2023-03-31T02:49:50.104Z,53.00
2023-03-31T02:52:43.110Z,53.00
2023-03-31T02:55:37.812Z,53.00
2023-03-31T02:58:40.043Z,53.00
2023-03-31T03:01:20.511Z,53.00
2023-03-31T03:04:00.246Z,53.10
2023-03-31T03:06:40.925Z,53.00
2023-03-31T03:09:35.955Z,53.10
2023-03-31T03:12:13.651Z,53.10
2023-03-31T03:14:51.227Z,53.10
2023-03-31T03:17:26.329Z,53.10
2023-03-31T03:19:57.718Z,53.10
2023-03-31T03:22:27.141Z,53.10
2023-03-31T03:24:56.907Z,53.10
2023-03-31T03:27:26.231Z,53.10
2023-03-31T03:29:55.538Z,53.00
2023-03-31T03:32:26.388Z,53.00
2023-03-31T03:34:55.628Z,53.00
2023-03-31T03:37:24.773Z,53.00
2023-03-31T03:39:53.949Z,53.00
2023-03-31T03:42:23.162Z,53.00
2023-03-31T03:44:52.476Z,53.00
2023-03-31T03:47:21.623Z,53.00
2023-03-31T03:49:52.135Z,52.90
2023-03-31T03:52:21.780Z,52.90
2023-03-31T03:54:50.932Z,53.00
2023-03-31T03:57:20.401Z,52.90
2023-03-31T03:59:49.605Z,52.90
2023-03-31T04:02:19.554Z,53.50
2023-03-31T04:04:49.168Z,52.90
2023-03-31T04:07:19.877Z,52.80
2023-03-31T04:09:49.057Z,53.00
2023-03-31T04:12:18.318Z,53.50
2023-03-31T04:14:47.504Z,52.80
2023-03-31T04:17:16.750Z,52.90
2023-03-31T04:19:50.911Z,53.00
2023-03-31T04:22:21.560Z,53.00
2023-03-31T04:24:53.139Z,53.00
2023-03-31T04:27:23.237Z,53.10
2023-03-31T04:29:55.125Z,53.00
2023-03-31T04:32:25.194Z,53.20
2023-03-31T04:35:02.938Z,53.20
2023-03-31T04:37:35.111Z,53.10
2023-03-31T04:40:10.104Z,53.20
2023-03-31T04:42:39.337Z,53.20
2023-03-31T04:45:09.245Z,53.20
2023-03-31T04:47:38.595Z,53.20
2023-03-31T04:50:14.568Z,53.20
2023-03-31T04:52:46.960Z,53.30
2023-03-31T04:55:16.395Z,53.20
2023-03-31T04:57:45.506Z,53.20
2023-03-31T05:00:15.840Z,53.20
2023-03-31T05:02:45.266Z,53.10
2023-03-31T05:05:14.828Z,53.10
2023-03-31T05:07:43.963Z,53.10
2023-03-31T05:10:16.096Z,53.10
2023-03-31T05:12:45.283Z,53.10
2023-03-31T05:15:14.560Z,53.10
2023-03-31T05:17:43.753Z,53.10
2023-03-31T05:20:14.881Z,53.10
2023-03-31T05:22:44.255Z,53.10
2023-03-31T05:25:18.852Z,53.10
2023-03-31T05:27:49.000Z,53.10
2023-03-31T05:30:19.413Z,53.10
2023-03-31T05:32:48.596Z,53.00
2023-03-31T05:35:17.867Z,53.10
2023-03-31T05:37:47.192Z,53.00
2023-03-31T05:40:18.104Z,53.00
2023-03-31T05:42:47.542Z,53.10
2023-03-31T05:45:16.814Z,53.00
2023-03-31T05:47:46.060Z,53.00
2023-03-31T05:50:15.418Z,53.00
2023-03-31T05:52:44.727Z,53.10
2023-03-31T05:55:13.998Z,53.10
2023-03-31T05:57:44.598Z,53.10
2023-03-31T06:00:15.417Z,53.30
2023-03-31T06:03:13.367Z,53.50
2023-03-31T06:05:49.443Z,53.50
2023-03-31T06:08:19.051Z,53.60
2023-03-31T06:10:48.254Z,53.60
2023-03-31T06:13:18.952Z,53.70
2023-03-31T06:16:03.834Z,53.70
2023-03-31T06:22:34.825Z,53.50
2023-03-31T06:25:04.909Z,53.90
2023-03-31T06:27:34.072Z,53.70
2023-03-31T06:30:05.034Z,53.50
2023-03-31T06:32:34.338Z,53.50
2023-03-31T06:35:03.614Z,53.50
2023-03-31T06:37:32.886Z,53.50
2023-03-31T06:40:02.201Z,53.60
2023-03-31T06:42:31.422Z,53.60
2023-03-31T06:45:00.622Z,53.60
2023-03-31T06:47:31.366Z,53.70
2023-03-31T06:50:00.623Z,53.60
2023-03-31T06:52:29.817Z,53.60
2023-03-31T06:55:00.656Z,53.60
2023-03-31T06:57:30.073Z,53.60
2023-03-31T06:59:59.240Z,53.60
2023-03-31T07:02:28.925Z,53.60
2023-03-31T07:04:59.901Z,53.60
2023-03-31T07:07:32.167Z,53.60
2023-03-31T07:10:01.484Z,53.60
2023-03-31T07:12:33.759Z,53.60
2023-03-31T07:15:03.104Z,53.60
2023-03-31T07:17:32.327Z,53.60
2023-03-31T07:20:05.226Z,53.60
2023-03-31T07:22:34.463Z,53.50
2023-03-31T07:25:03.702Z,53.60
2023-03-31T07:27:32.918Z,53.50
2023-03-31T07:30:02.204Z,53.60
2023-03-31T07:32:31.543Z,53.50
2023-03-31T07:35:00.928Z,53.60
2023-03-31T07:37:36.752Z,53.60
2023-03-31T07:40:07.087Z,53.60
2023-03-31T07:42:37.037Z,53.60
2023-03-31T07:45:08.773Z,53.60
2023-03-31T07:47:38.664Z,53.70
2023-03-31T07:50:09.558Z,53.70
2023-03-31T07:52:41.041Z,53.60
2023-03-31T07:55:10.768Z,53.60
2023-03-31T07:57:40.732Z,53.70
2023-03-31T08:00:12.773Z,53.70
2023-03-31T08:02:43.048Z,53.60
2023-03-31T08:05:14.021Z,53.70
2023-03-31T08:07:47.290Z,53.70
2023-03-31T08:10:19.737Z,53.60
2023-03-31T08:12:48.983Z,53.60
2023-03-31T08:15:18.724Z,53.60
2023-03-31T08:17:48.047Z,53.50
2023-03-31T08:20:17.314Z,53.60
2023-03-31T08:22:47.996Z,53.60
2023-03-31T08:25:17.389Z,53.60
2023-03-31T08:27:49.012Z,53.60
2023-03-31T08:30:19.818Z,53.60
2023-03-31T08:32:49.038Z,53.70
2023-03-31T08:35:18.452Z,54.60
2023-03-31T08:37:49.001Z,55.40
2023-03-31T08:40:22.378Z,56.50
2023-03-31T08:42:54.366Z,57.00
2023-03-31T08:45:27.229Z,57.30
2023-03-31T08:48:00.507Z,57.60
2023-03-31T08:50:34.064Z,58.20
2023-03-31T08:53:07.151Z,58.40
2023-03-31T08:55:45.204Z,58.60
2023-03-31T08:58:30.027Z,58.70
2023-03-31T09:01:05.971Z,58.90
2023-03-31T09:03:44.857Z,58.70
2023-03-31T09:06:17.955Z,58.70
2023-03-31T09:08:49.518Z,59.30
2023-03-31T09:11:29.520Z,60.20
2023-03-31T09:14:17.631Z,59.70
2023-03-31T09:16:53.781Z,60.50
2023-03-31T09:19:34.879Z,59.90
2023-03-31T09:22:05.808Z,60.00
2023-03-31T09:24:44.970Z,60.00
2023-03-31T09:27:14.603Z,60.30
2023-03-31T09:29:48.600Z,60.50
2023-03-31T09:32:21.170Z,59.80
2023-03-31T09:34:57.439Z,60.50
2023-03-31T09:37:29.575Z,60.80
2023-03-31T09:40:02.584Z,60.80
2023-03-31T09:42:32.329Z,60.80
2023-03-31T09:45:01.938Z,60.40
2023-03-31T09:47:39.232Z,60.00
2023-03-31T09:50:10.234Z,60.00
2023-03-31T09:52:44.221Z,59.90
2023-03-31T09:55:35.947Z,59.80
2023-03-31T09:58:08.772Z,59.60
2023-03-31T10:00:38.270Z,59.50
2023-03-31T10:03:08.859Z,59.40
2023-03-31T10:05:40.354Z,59.60
2023-03-31T10:08:26.539Z,59.80
2023-03-31T10:10:59.475Z,59.70
2023-03-31T10:13:30.931Z,59.60
2023-03-31T10:16:05.402Z,59.60
2023-03-31T10:18:37.604Z,59.10
2023-03-31T10:21:09.275Z,58.80
2023-03-31T10:23:38.697Z,58.60
2023-03-31T10:26:18.003Z,58.40
2023-03-31T10:28:49.741Z,58.10
2023-03-31T10:31:19.681Z,57.90
2023-03-31T10:33:51.993Z,57.70
2023-03-31T10:36:26.910Z,57.50
2023-03-31T10:38:57.297Z,57.70
2023-03-31T10:41:30.545Z,57.80
2023-03-31T10:44:01.465Z,58.00
2023-03-31T10:46:48.001Z,57.80
2023-03-31T10:49:25.161Z,76.70
2023-03-31T10:51:56.381Z,74.80
2023-03-31T10:54:26.749Z,69.30
2023-03-31T10:57:01.731Z,73.80
2023-03-31T10:59:47.297Z,63.70
2023-03-31T11:02:42.389Z,70.30
2023-03-31T11:05:17.043Z,72.00
2023-03-31T11:08:00.551Z,68.60
2023-03-31T11:10:50.014Z,65.20
2023-03-31T11:13:27.044Z,74.00
2023-03-31T11:16:04.826Z,75.00
2023-03-31T11:18:44.645Z,68.80
2023-03-31T11:21:22.900Z,71.60
2023-03-31T11:24:00.572Z,69.90
2023-03-31T11:26:39.960Z,70.40
2023-03-31T11:29:24.200Z,71.40
2023-03-31T11:32:01.374Z,71.00
2023-03-31T11:35:07.483Z,63.30
2023-03-31T11:37:50.873Z,69.80
2023-03-31T11:40:37.598Z,69.10
2023-03-31T11:43:13.350Z,69.20
2023-03-31T11:45:48.788Z,69.90
2023-03-31T11:48:27.487Z,70.60
2023-03-31T11:50:58.476Z,66.60
2023-03-31T11:53:31.217Z,68.20
2023-03-31T11:56:05.312Z,68.40
2023-03-31T11:58:39.380Z,70.60
2023-03-31T12:01:19.335Z,68.80
2023-03-31T12:03:57.542Z,69.40
2023-03-31T12:06:31.601Z,68.50
2023-03-31T12:09:12.166Z,68.20
2023-03-31T12:11:47.062Z,66.40
2023-03-31T12:14:34.451Z,61.90
2023-03-31T12:17:11.693Z,68.60
2023-03-31T12:22:20.183Z,67.70
2023-03-31T12:27:23.252Z,65.70
2023-03-31T12:29:59.596Z,65.10
2023-03-31T12:32:34.383Z,65.90
2023-03-31T12:35:08.355Z,63.90
2023-03-31T12:37:59.636Z,56.10
2023-03-31T12:40:39.694Z,57.50
2023-03-31T12:43:35.292Z,49.30
2023-03-31T12:46:32.978Z,55.10
2023-03-31T12:49:17.001Z,54.40
2023-03-31T12:52:06.203Z,48.00
2023-03-31T12:54:56.986Z,52.80
2023-03-31T12:57:27.671Z,53.20
2023-03-31T13:00:24.641Z,48.40
2023-03-31T13:03:43.935Z,53.00
2023-03-31T13:06:49.704Z,51.90
2023-03-31T13:09:42.294Z,48.10
2023-03-31T13:12:17.017Z,52.10
2023-03-31T13:14:49.027Z,52.80
2023-03-31T13:17:28.491Z,47.50
2023-03-31T13:20:16.849Z,52.60
2023-03-31T13:22:49.540Z,52.60
2023-03-31T13:25:43.140Z,48.80
2023-03-31T13:28:17.950Z,52.50
2023-03-31T13:30:54.321Z,48.00
2023-03-31T13:33:35.664Z,52.40
2023-03-31T13:36:42.989Z,47.50
2023-03-31T13:39:39.487Z,52.10
2023-03-31T13:42:26.878Z,51.40
2023-03-31T13:45:12.206Z,47.20
2023-03-31T13:47:57.459Z,51.20
2023-03-31T13:50:47.861Z,47.60
2023-03-31T13:53:31.512Z,52.30
2023-03-31T13:56:17.221Z,48.90
2023-03-31T13:59:11.981Z,53.70
2023-03-31T14:02:05.810Z,53.00
2023-03-31T14:05:01.249Z,48.70
2023-03-31T14:07:36.004Z,52.80
2023-03-31T14:10:07.479Z,88.30
2023-03-31T14:12:39.684Z,88.60
2023-03-31T14:15:19.200Z,55.70
2023-03-31T14:17:48.842Z,91.20
2023-03-31T14:20:33.619Z,91.80
2023-03-31T14:23:16.110Z,53.10
2023-03-31T14:25:54.686Z,53.60
2023-03-31T14:28:48.769Z,92.60
2023-03-31T14:31:24.952Z,54.80
2023-03-31T14:34:24.955Z,50.80
2023-03-31T14:37:00.603Z,54.70
2023-03-31T14:39:34.113Z,92.80
2023-03-31T14:42:07.223Z,93.20
2023-03-31T14:44:38.713Z,92.00
2023-03-31T14:49:39.231Z,53.90
2023-03-31T14:52:17.111Z,53.40
2023-03-31T14:54:47.849Z,92.50
2023-03-31T14:57:21.753Z,92.50
2023-03-31T14:59:54.492Z,55.80
2023-03-31T15:02:33.133Z,92.60
2023-03-31T15:05:08.169Z,92.90
2023-03-31T15:07:39.457Z,91.70
2023-03-31T15:10:10.168Z,57.30
2023-03-31T15:12:40.414Z,91.50
2023-03-31T15:15:16.627Z,53.10
2023-03-31T15:17:49.524Z,55.20
2023-03-31T15:20:38.569Z,51.10
2023-03-31T15:23:25.157Z,52.50
2023-03-31T15:26:00.133Z,53.20
2023-03-31T15:28:34.843Z,80.10
2023-03-31T15:31:10.675Z,54.20
2023-03-31T15:33:42.741Z,91.30
2023-03-31T15:36:14.298Z,53.50
2023-03-31T15:38:45.282Z,91.80
2023-03-31T15:41:17.076Z,55.30
2023-03-31T15:43:50.879Z,56.50
2023-03-31T15:46:27.619Z,54.30
2023-03-31T15:48:58.184Z,92.70
2023-03-31T15:51:32.583Z,55.50
2023-03-31T15:54:01.781Z,54.50
2023-03-31T15:56:35.863Z,91.50
2023-03-31T15:59:07.515Z,54.00
2023-03-31T16:01:42.945Z,73.70
2023-03-31T16:04:16.512Z,91.00
2023-03-31T16:06:48.696Z,81.60
2023-03-31T16:09:21.733Z,90.10
2023-03-31T16:11:54.527Z,52.10
2023-03-31T16:14:29.631Z,53.30
2023-03-31T16:17:05.574Z,72.70
2023-03-31T16:19:44.683Z,52.20
2023-03-31T16:22:17.935Z,90.20
2023-03-31T16:24:48.050Z,89.40
2023-03-31T16:27:17.977Z,90.00
2023-03-31T16:29:47.770Z,90.20
2023-03-31T16:32:21.202Z,89.60
2023-03-31T16:34:58.016Z,90.00
2023-03-31T16:37:28.010Z,90.00
2023-03-31T16:39:58.357Z,90.30
2023-03-31T16:42:28.406Z,90.00
2023-03-31T16:45:13.130Z,89.50
2023-03-31T16:47:46.099Z,89.80
2023-03-31T16:50:15.921Z,89.20
2023-03-31T16:52:45.891Z,88.70
2023-03-31T16:55:15.328Z,88.20
2023-03-31T16:57:44.725Z,88.60
2023-03-31T17:00:15.443Z,88.00
2023-03-31T17:02:46.440Z,88.30
2023-03-31T17:05:16.049Z,88.30
2023-03-31T17:07:47.412Z,88.00
2023-03-31T17:10:17.602Z,51.00
2023-03-31T17:12:47.581Z,87.50
2023-03-31T17:15:16.898Z,87.70
2023-03-31T17:17:48.049Z,87.90
2023-03-31T17:20:17.590Z,87.90
2023-03-31T17:22:47.230Z,86.00
2023-03-31T17:25:16.823Z,86.10
2023-03-31T17:27:46.888Z,51.70
2023-03-31T17:30:16.790Z,85.60
2023-03-31T17:32:47.756Z,86.80
2023-03-31T17:35:21.733Z,51.40
2023-03-31T17:37:54.120Z,85.20
2023-03-31T17:40:25.213Z,85.20
2023-03-31T17:42:56.404Z,85.10
2023-03-31T17:45:25.619Z,84.90
2023-03-31T17:47:56.412Z,84.90
2023-03-31T17:50:26.669Z,84.40
2023-03-31T17:52:56.318Z,85.00
2023-03-31T17:55:27.406Z,84.90
2023-03-31T17:57:57.427Z,84.50
2023-03-31T18:00:26.976Z,51.40
2023-03-31T18:02:57.608Z,51.00
2023-03-31T18:05:27.257Z,50.90
2023-03-31T18:07:57.089Z,50.10
2023-03-31T18:10:26.950Z,50.00
2023-03-31T18:12:56.267Z,49.90
2023-03-31T18:15:25.912Z,50.40
2023-03-31T18:17:56.671Z,50.40
2023-03-31T18:20:26.186Z,50.50
2023-03-31T18:22:55.507Z,50.40
2023-03-31T18:25:24.831Z,50.80
2023-03-31T18:27:54.109Z,50.50
2023-03-31T18:30:23.828Z,50.70
2023-03-31T18:32:53.449Z,51.20
2023-03-31T18:35:24.693Z,51.40
2023-03-31T18:37:53.949Z,51.60
2023-03-31T18:40:23.871Z,51.60
2023-03-31T18:42:53.065Z,51.70
2023-03-31T18:45:22.261Z,51.70
2023-03-31T18:47:52.986Z,52.10
2023-03-31T18:50:24.098Z,52.30
2023-03-31T18:52:54.815Z,52.30
2023-03-31T18:55:24.667Z,52.60
2023-03-31T18:57:53.997Z,52.50
2023-03-31T19:00:23.926Z,52.50
2023-03-31T19:02:53.757Z,52.60
2023-03-31T19:05:24.482Z,52.60
2023-03-31T19:07:53.699Z,52.70
2023-03-31T19:10:22.940Z,53.80
2023-03-31T19:12:52.355Z,53.70
2023-03-31T19:15:22.728Z,53.60
2023-03-31T19:17:52.046Z,53.40
2023-03-31T19:20:21.738Z,53.70
2023-03-31T19:22:52.934Z,53.30
2023-03-31T19:25:22.471Z,53.30
2023-03-31T19:27:51.939Z,53.20
2023-03-31T19:30:25.195Z,53.60
2023-03-31T19:32:54.733Z,53.40
2023-03-31T19:35:24.441Z,53.30
2023-03-31T19:37:55.043Z,53.30
2023-03-31T19:40:24.739Z,53.70
2023-03-31T19:42:53.935Z,53.70
2023-03-31T19:45:23.081Z,54.00
2023-03-31T19:47:52.211Z,53.70
2023-03-31T19:50:21.832Z,53.70
2023-03-31T19:52:51.422Z,53.60
2023-03-31T19:55:22.077Z,53.90
2023-03-31T19:57:51.423Z,53.70
2023-03-31T20:00:21.559Z,53.50
2023-03-31T20:02:51.065Z,53.60
2023-03-31T20:05:21.222Z,53.70
2023-03-31T20:07:50.652Z,53.90
2023-03-31T20:10:21.467Z,53.80
2023-03-31T20:12:51.883Z,53.80
2023-03-31T20:15:21.778Z,54.00
2023-03-31T20:17:52.572Z,53.80
2023-03-31T20:20:22.577Z,53.80
2023-03-31T20:22:52.135Z,53.70
2023-03-31T20:25:24.179Z,53.80
2023-03-31T20:27:53.553Z,53.80
2023-03-31T20:30:22.920Z,53.80
2023-03-31T20:32:52.254Z,54.30
2023-03-31T20:35:21.758Z,53.60
2023-03-31T20:37:52.890Z,53.50
2023-03-31T20:40:24.270Z,53.50
2023-03-31T20:42:54.384Z,53.50
2023-03-31T20:45:24.302Z,53.50
2023-03-31T20:47:53.650Z,53.50
2023-03-31T20:50:23.186Z,53.50
2023-03-31T20:52:52.808Z,53.50
2023-03-31T20:55:24.027Z,53.60
2023-03-31T20:57:54.106Z,53.50
2023-03-31T21:00:24.124Z,53.60
2023-03-31T21:02:53.441Z,53.60
2023-03-31T21:05:22.918Z,53.60
2023-03-31T21:07:52.296Z,53.70
2023-03-31T21:10:24.609Z,53.70
2023-03-31T21:12:54.592Z,53.70
2023-03-31T21:15:23.910Z,53.70
2023-03-31T21:17:53.368Z,53.70
2023-03-31T21:20:23.019Z,53.70
2023-03-31T21:22:52.284Z,53.70
2023-03-31T21:25:22.964Z,53.80
2023-03-31T21:27:52.584Z,53.80
2023-03-31T21:30:23.809Z,53.80
2023-03-31T21:32:54.092Z,53.70
2023-03-31T21:35:23.517Z,53.70
2023-03-31T21:37:52.686Z,53.70
2023-03-31T21:40:24.345Z,53.70
2023-03-31T21:42:53.754Z,53.70
2023-03-31T21:45:23.176Z,53.60
2023-03-31T21:47:52.887Z,53.60
2023-03-31T21:50:22.606Z,53.70
2023-03-31T21:52:52.151Z,53.60
2023-03-31T21:55:23.003Z,53.60
2023-03-31T21:57:53.125Z,53.50
2023-03-31T22:00:23.200Z,53.60
2023-03-31T22:02:55.597Z,53.50
2023-03-31T22:05:33.194Z,53.50
2023-03-31T22:08:02.729Z,53.50
2023-03-31T22:10:33.430Z,53.40
2023-03-31T22:13:02.659Z,53.40
2023-03-31T22:15:32.156Z,53.40
2023-03-31T22:18:01.848Z,53.40
2023-03-31T22:20:31.890Z,53.40
2023-03-31T22:23:01.139Z,53.40
2023-03-31T22:25:30.777Z,53.40
2023-03-31T22:28:02.002Z,53.30
2023-03-31T22:30:31.386Z,53.30
2023-03-31T22:33:00.713Z,53.30
2023-03-31T22:35:30.778Z,53.30
2023-03-31T22:38:01.622Z,53.30
2023-03-31T22:40:30.913Z,53.30
2023-03-31T22:43:01.812Z,53.30
2023-03-31T22:45:31.260Z,53.20
2023-03-31T22:48:00.807Z,53.20
2023-03-31T22:50:31.418Z,53.20
2023-03-31T22:53:00.720Z,53.80
2023-03-31T22:55:30.333Z,53.20
2023-03-31T22:58:01.278Z,53.20
2023-03-31T23:00:30.827Z,53.20
2023-03-31T23:03:00.208Z,53.20
2023-03-31T23:05:29.654Z,53.20
2023-03-31T23:07:58.963Z,53.30
2023-03-31T23:10:28.520Z,53.30
2023-03-31T23:12:57.966Z,53.20
2023-03-31T23:15:28.689Z,53.30
2023-03-31T23:17:57.890Z,53.20
2023-03-31T23:20:27.178Z,53.20
2023-03-31T23:22:58.446Z,53.10
2023-03-31T23:25:27.662Z,53.10
2023-03-31T23:27:56.758Z,53.10
2023-03-31T23:30:27.379Z,53.10
2023-03-31T23:32:56.677Z,53.10
2023-03-31T23:35:25.899Z,53.10
2023-03-31T23:37:55.074Z,53.10
2023-03-31T23:40:24.365Z,53.00
2023-03-31T23:42:53.564Z,53.00
2023-03-31T23:45:22.709Z,53.00
2023-03-31T23:47:53.297Z,53.00
2023-03-31T23:50:22.714Z,53.00
2023-03-31T23:52:51.904Z,53.00
2023-03-31T23:55:21.157Z,53.00
2023-03-31T23:57:50.310Z,53.00
